Time;durP1;ratioP1;P1;durP2;ratioP2;P2;SDS_P1;SDS_P2;PMS_P1;PMS_P2;Temp;Humidity;BMP_temperature;BMP_pressure;BME280_temperature;BME280_humidity;BME280_pressure;Samples;Min_cycle;Max_cycle;Signal;HPM_P1;HPM_P2
2022/12/15 00:38:44;;;;;;;4.50;1.95;;;-5.20;1.00;;;;;;5109393;28;20420;-68
2022/12/15 00:41:13;;;;;;;3.70;1.42;;;-5.00;1.00;;;;;;5108311;27;20776;-69
2022/12/15 00:43:40;;;;;;;1.13;1.13;;;-4.90;1.00;;;;;;5115795;27;21132;-70
2022/12/15 00:48:53;;;;;;;1.90;1.25;;;-4.90;1.00;;;;;;5122255;27;20424;-69
2022/12/15 00:51:20;;;;;;;2.80;1.75;;;-4.90;1.00;;;;;;5114778;27;20416;-69
2022/12/15 01:21:25;;;;;;;1.40;1.20;;;-6.00;1.00;;;;;;5118577;27;20743;-68
2022/12/15 01:23:52;;;;;;;2.23;1.03;;;-6.10;1.00;;;;;;5116690;27;20426;-68
2022/12/15 01:26:19;;;;;;;7.05;1.75;;;-6.20;1.00;;;;;;5112235;27;20487;-70
2022/12/15 01:28:46;;;;;;;0.90;0.90;;;-6.20;1.00;;;;;;5113939;27;20450;-68
2022/12/15 01:31:15;;;;;;;2.85;1.63;;;-6.20;1.00;;;;;;5117677;27;20989;-68
2022/12/15 01:33:42;;;;;;;2.15;1.15;;;-6.20;1.00;;;;;;5096656;27;20918;-69
2022/12/15 01:36:10;;;;;;;0.70;0.65;;;-6.20;1.00;;;;;;5121400;27;20418;-69
2022/12/15 01:38:37;;;;;;;2.10;0.88;;;-6.20;1.00;;;;;;5113072;27;20506;-69
2022/12/15 01:41:11;;;;;;;2.80;1.13;;;-6.20;1.00;;;;;;5116928;27;20427;-69
2022/12/15 01:43:39;;;;;;;0.88;0.88;;;-6.20;1.00;;;;;;5101119;27;20958;-69
2022/12/15 01:46:19;;;;;;;1.08;1.08;;;-6.20;1.00;;;;;;5100933;27;20422;-69
2022/12/15 01:49:11;;;;;;;1.42;1.33;;;-6.10;1.00;;;;;;5105969;27;20469;-69
2022/12/15 01:51:41;;;;;;;0.98;0.98;;;-6.10;1.00;;;;;;5103472;27;20429;-69
2022/12/15 01:54:19;;;;;;;1.80;1.48;;;-6.10;1.00;;;;;;5107048;27;20418;-69
2022/12/15 01:56:54;;;;;;;4.47;1.20;;;-6.10;1.00;;;;;;5097645;27;20472;-69
2022/12/15 01:59:30;;;;;;;1.85;1.30;;;-6.20;1.00;;;;;;5122928;27;21122;-69
2022/12/15 02:01:57;;;;;;;0.70;0.70;;;-6.20;1.00;;;;;;5107862;27;20424;-69
2022/12/15 02:04:24;;;;;;;1.00;0.70;;;-6.30;1.00;;;;;;5125751;27;20430;-69
2022/12/15 02:06:51;;;;;;;0.88;0.88;;;-6.30;1.00;;;;;;5094465;27;20421;-69
2022/12/15 02:09:21;;;;;;;1.17;1.08;;;-6.40;1.00;;;;;;5100924;27;20420;-69
2022/12/15 02:12:01;;;;;;;0.98;0.98;;;-6.50;1.00;;;;;;5116814;27;20418;-69
2022/12/15 02:14:52;;;;;;;1.55;1.45;;;-6.50;1.00;;;;;;5110860;27;20422;-69
2022/12/15 02:17:31;;;;;;;0.80;0.80;;;-6.50;1.00;;;;;;5115458;27;20475;-68
2022/12/15 02:20:29;;;;;;;5.90;1.25;;;-6.60;1.00;;;;;;5111497;27;20811;-69
2022/12/15 02:23:33;;;;;;;1.42;0.95;;;-6.70;1.00;;;;;;5106130;27;20429;-68
2022/12/15 02:26:03;;;;;;;2.00;1.15;;;-6.70;1.00;;;;;;5119488;27;20432;-69
2022/12/15 02:28:51;;;;;;;0.88;0.88;;;-6.80;1.00;;;;;;5106080;28;20420;-69
2022/12/15 02:34:33;;;;;;;2.50;1.13;;;-6.80;1.00;;;;;;5115839;27;20423;-69
2022/12/15 02:37:07;;;;;;;0.98;0.98;;;-6.80;1.00;;;;;;5093147;27;20915;-68
2022/12/15 02:39:34;;;;;;;1.05;1.05;;;-6.80;1.00;;;;;;5084674;27;20453;-69
2022/12/15 02:42:01;;;;;;;1.13;1.02;;;-6.80;1.00;;;;;;5121626;27;20527;-69
2022/12/15 02:44:37;;;;;;;2.63;1.30;;;-7.00;1.00;;;;;;5119487;27;20442;-68
2022/12/15 02:47:29;;;;;;;5.05;1.70;;;-7.10;1.00;;;;;;5115369;27;20479;-70
2022/12/15 02:50:41;;;;;;;4.85;1.23;;;-7.30;1.00;;;;;;5098522;27;20424;-69
2022/12/15 02:53:08;;;;;;;1.20;1.15;;;-7.40;1.00;;;;;;5120126;27;20426;-70
2022/12/15 02:55:45;;;;;;;1.45;1.08;;;-7.20;1.00;;;;;;5119903;27;20976;-70
2022/12/15 02:58:47;;;;;;;0.80;0.80;;;-7.20;1.00;;;;;;5115323;27;20420;-69
2022/12/15 03:01:39;;;;;;;5.70;0.93;;;-7.10;1.00;;;;;;5114344;27;20423;-69
2022/12/15 03:04:09;;;;;;;1.10;0.82;;;-7.10;1.00;;;;;;5094676;27;20853;-69
2022/12/15 03:06:36;;;;;;;0.93;0.93;;;-7.20;1.00;;;;;;5114619;27;20912;-69
2022/12/15 03:09:03;;;;;;;2.30;1.52;;;-7.10;1.00;;;;;;5116854;27;20427;-70
2022/12/15 03:11:30;;;;;;;3.63;1.52;;;-7.10;1.00;;;;;;5117640;27;20475;-70
2022/12/15 03:13:57;;;;;;;1.50;1.30;;;-7.10;1.00;;;;;;5108884;27;20506;-70
2022/12/15 03:16:23;;;;;;;0.93;0.93;;;-7.10;1.00;;;;;;5116661;27;20577;-70
2022/12/15 03:18:51;;;;;;;1.57;0.97;;;-7.10;1.00;;;;;;5097972;28;20433;-69
2022/12/15 03:21:18;;;;;;;0.90;0.90;;;-7.20;1.00;;;;;;5108819;27;20910;-70
2022/12/15 03:23:45;;;;;;;0.93;0.50;;;-7.30;1.00;;;;;;5113020;27;20774;-70
2022/12/15 03:26:11;;;;;;;0.70;0.70;;;-7.30;1.00;;;;;;5089277;28;20432;-69
2022/12/15 03:28:38;;;;;;;2.78;1.30;;;-7.40;1.00;;;;;;5123267;27;21053;-70
2022/12/15 03:31:05;;;;;;;1.60;1.00;;;-7.40;1.00;;;;;;5113569;27;20956;-69
2022/12/15 03:33:33;;;;;;;1.40;1.35;;;-7.40;1.00;;;;;;5117101;27;20434;-70
2022/12/15 03:36:03;;;;;;;1.08;0.98;;;-7.50;1.00;;;;;;5121079;27;20819;-70
2022/12/15 03:38:30;;;;;;;1.00;0.65;;;-7.60;99.90;;;;;;5091913;27;20976;-70
2022/12/15 03:40:57;;;;;;;0.68;0.68;;;-7.70;99.90;;;;;;5092480;28;20429;-70
2022/12/15 03:43:24;;;;;;;0.60;0.60;;;-7.90;99.90;;;;;;5106571;27;20424;-70
2022/12/15 03:45:53;;;;;;;3.07;1.07;;;-7.90;99.90;;;;;;5115289;27;20495;-70
2022/12/15 03:48:20;;;;;;;1.27;1.17;;;-8.00;99.90;;;;;;5117094;27;20436;-69
2022/12/15 03:50:48;;;;;;;1.52;1.25;;;-8.10;99.90;;;;;;5112344;27;20983;-70
2022/12/15 03:53:18;;;;;;;1.15;0.63;;;-8.10;99.90;;;;;;5112720;27;20426;-69
2022/12/15 03:55:48;;;;;;;0.70;0.70;;;-8.10;99.90;;;;;;5086888;28;20435;-70
2022/12/15 03:58:14;;;;;;;1.55;1.42;;;-8.20;99.90;;;;;;5100920;27;20514;-69
2022/12/15 04:00:41;;;;;;;0.52;0.52;;;-8.20;99.90;;;;;;5103270;27;20492;-69
2022/12/15 04:03:09;;;;;;;1.70;1.00;;;-8.20;99.90;;;;;;5101613;28;20438;-69
2022/12/15 04:05:37;;;;;;;1.23;0.80;;;-8.20;99.90;;;;;;5106912;27;20509;-70
2022/12/15 04:08:04;;;;;;;1.40;1.35;;;-8.10;99.90;;;;;;5111774;27;20429;-70
2022/12/15 04:10:33;;;;;;;1.33;1.00;;;-8.00;99.90;;;;;;5116377;27;20809;-70
2022/12/15 04:13:08;;;;;;;1.40;0.95;;;-8.00;99.90;;;;;;5103193;27;20426;-70
2022/12/15 04:15:37;;;;;;;0.70;0.70;;;-7.90;99.90;;;;;;5102656;27;20850;-70
2022/12/15 04:18:08;;;;;;;3.47;1.33;;;-7.90;99.90;;;;;;5097643;27;20429;-70
2022/12/15 04:20:35;;;;;;;1.85;0.90;;;-7.80;99.90;;;;;;5110487;28;20430;-70
2022/12/15 04:23:01;;;;;;;0.90;0.82;;;-7.70;99.90;;;;;;5111854;28;20437;-70
2022/12/15 05:32:12;;;;;;;1.20;0.98;;;-6.60;99.90;;;;;;5120930;27;20409;-69
2022/12/15 05:34:38;;;;;;;2.35;1.20;;;-6.60;99.90;;;;;;5105233;27;20511;-69
2022/12/15 05:37:06;;;;;;;3.10;1.60;;;-6.70;99.90;;;;;;5117050;27;20422;-68
2022/12/15 05:39:35;;;;;;;1.92;1.80;;;-6.90;99.90;;;;;;5103458;27;20731;-69
2022/12/15 05:42:02;;;;;;;1.33;1.23;;;-7.00;99.90;;;;;;5115017;27;20426;-69
2022/12/15 05:44:29;;;;;;;1.25;1.05;;;-7.20;99.90;;;;;;5110841;27;20416;-69
2022/12/15 05:46:56;;;;;;;1.30;1.20;;;-7.30;99.90;;;;;;5084866;27;20500;-69
2022/12/15 05:49:25;;;;;;;7.25;1.70;;;-7.40;99.90;;;;;;5108601;27;20424;-69
2022/12/15 05:51:51;;;;;;;0.55;0.55;;;-7.40;99.90;;;;;;5114136;27;20410;-69
2022/12/15 05:54:18;;;;;;;2.00;1.85;;;-7.40;99.90;;;;;;5111567;27;20499;-69
2022/12/15 05:56:46;;;;;;;1.13;1.13;;;-7.40;99.90;;;;;;5088032;27;20511;-73
2022/12/15 05:59:16;;;;;;;2.67;2.10;;;-7.40;99.90;;;;;;5111482;27;20424;-73
2022/12/15 06:01:43;;;;;;;0.95;0.95;;;-7.40;99.90;;;;;;5106750;27;20507;-73
2022/12/15 06:04:14;;;;;;;1.08;1.02;;;-7.40;99.90;;;;;;5112738;27;20463;-73
2022/12/15 06:06:42;;;;;;;1.65;1.35;;;-7.40;99.90;;;;;;5093165;28;20844;-73
2022/12/15 06:09:09;;;;;;;1.73;1.63;;;-7.40;99.90;;;;;;5102699;27;20432;-73
2022/12/15 06:11:36;;;;;;;1.63;1.07;;;-7.40;99.90;;;;;;5106417;27;20435;-73
2022/12/15 06:14:03;;;;;;;2.30;1.15;;;-7.40;99.90;;;;;;5085514;27;20597;-73
2022/12/15 06:16:30;;;;;;;2.80;2.60;;;-7.50;99.90;;;;;;5106999;27;20430;-73
2022/12/15 06:19:02;;;;;;;5.10;1.40;;;-7.50;99.90;;;;;;5097360;27;20426;-73
2022/12/15 06:21:34;;;;;;;2.15;1.88;;;-7.60;99.90;;;;;;5103698;28;20815;-72
2022/12/15 06:24:02;;;;;;;2.13;1.35;;;-7.70;99.90;;;;;;5100190;27;20433;-73
2022/12/15 06:26:34;;;;;;;9.05;2.80;;;-7.90;99.90;;;;;;5108903;27;20481;-72
2022/12/15 06:29:07;;;;;;;3.17;1.92;;;-7.90;99.90;;;;;;5102888;27;20426;-73
2022/12/15 06:31:35;;;;;;;6.93;1.13;;;-8.00;99.90;;;;;;5112228;27;20424;-73
2022/12/15 06:34:04;;;;;;;1.70;1.60;;;-8.10;99.90;;;;;;5082410;28;20906;-73
2022/12/15 06:36:37;;;;;;;1.52;1.42;;;-8.10;99.90;;;;;;5098480;27;20424;-73
2022/12/15 06:39:07;;;;;;;7.40;1.00;;;-8.20;99.90;;;;;;5097549;28;20428;-72
2022/12/15 06:41:34;;;;;;;4.40;2.17;;;-8.20;99.90;;;;;;5116050;27;20482;-72
2022/12/15 06:44:01;;;;;;;9.13;2.57;;;-8.30;99.90;;;;;;5101710;27;21004;-72
2022/12/15 06:46:29;;;;;;;0.98;0.85;;;-8.30;99.90;;;;;;5109448;27;20420;-72
2022/12/15 06:48:57;;;;;;;2.27;2.07;;;-8.20;99.90;;;;;;5104269;27;20507;-73
2022/12/15 06:51:25;;;;;;;1.93;1.27;;;-8.20;99.90;;;;;;5100290;27;20437;-73
2022/12/15 06:53:55;;;;;;;2.90;2.00;;;-8.10;99.90;;;;;;5101258;27;20516;-73
2022/12/15 06:56:27;;;;;;;1.77;1.07;;;-8.00;99.90;;;;;;5108653;27;20441;-72
2022/12/15 06:59:00;;;;;;;1.25;0.90;;;-7.90;99.90;;;;;;5105449;28;20434;-73
2022/12/15 07:01:27;;;;;;;5.18;1.50;;;-7.90;99.90;;;;;;5093968;28;20429;-73
2022/12/15 07:03:55;;;;;;;1.33;1.17;;;-7.90;99.90;;;;;;5092093;28;20522;-73
2022/12/15 07:06:25;;;;;;;0.85;0.85;;;-7.90;99.90;;;;;;5108264;27;20438;-73
2022/12/15 07:08:55;;;;;;;1.77;1.30;;;-8.00;99.90;;;;;;5111953;27;20503;-73
2022/12/15 07:11:22;;;;;;;4.75;1.65;;;-8.10;99.90;;;;;;5105518;27;20431;-73
2022/12/15 07:13:53;;;;;;;1.67;1.58;;;-8.10;99.90;;;;;;5106631;27;20424;-73
2022/12/15 07:16:21;;;;;;;1.40;1.10;;;-8.00;99.90;;;;;;5107064;28;21098;-73
2022/12/15 07:18:48;;;;;;;1.40;1.30;;;-7.80;99.90;;;;;;5104996;27;20430;-73
2022/12/15 07:21:16;;;;;;;2.20;2.00;;;-7.60;99.90;;;;;;5111282;27;20450;-73
2022/12/15 07:23:43;;;;;;;0.60;0.60;;;-7.30;99.90;;;;;;5100109;27;20483;-73
2022/12/15 07:26:26;;;;;;;1.83;1.70;;;-7.00;1.00;;;;;;5106483;27;20507;-73
2022/12/15 07:28:53;;;;;;;3.25;1.60;;;-6.70;99.90;;;;;;5115188;27;20803;-73
2022/12/15 07:31:22;;;;;;;2.30;1.40;;;-6.50;1.00;;;;;;5111011;27;20769;-74
2022/12/15 07:33:50;;;;;;;1.08;1.08;;;-6.40;99.90;;;;;;5100162;28;21123;-73
2022/12/15 07:36:17;;;;;;;4.07;2.13;;;-6.30;25.50;;;;;;5102681;27;20426;-73
2022/12/15 07:38:44;;;;;;;2.00;1.10;;;-6.20;99.90;;;;;;5101742;27;20455;-73
2022/12/15 07:41:16;;;;;;;2.70;2.28;;;-6.10;99.90;;;;;;5103607;27;20435;-73
2022/12/15 07:43:44;;;;;;;3.13;1.17;;;-6.00;99.90;;;;;;5105321;27;20817;-74
2022/12/15 07:46:10;;;;;;;2.17;1.97;;;-5.90;99.90;;;;;;5104215;27;20430;-73
2022/12/15 07:48:37;;;;;;;1.33;1.33;;;-5.70;99.90;;;;;;5102034;27;20892;-73
2022/12/15 07:51:05;;;;;;;1.50;1.40;;;-5.70;99.90;;;;;;5103275;27;20803;-73
2022/12/15 07:53:38;;;;;;;1.67;1.55;;;-5.50;99.90;;;;;;5114492;27;20457;-73
2022/12/15 07:56:06;;;;;;;8.02;1.70;;;-5.40;99.90;;;;;;5116157;27;20458;-73
2022/12/15 07:58:36;;;;;;;4.60;1.70;;;-5.40;99.90;;;;;;5111342;27;20431;-74
2022/12/15 08:01:05;;;;;;;2.10;1.20;;;-5.30;99.90;;;;;;5112888;27;20430;-73
2022/12/15 08:03:33;;;;;;;2.60;1.00;;;-5.20;99.90;;;;;;5094051;28;20478;-73
2022/12/15 08:06:04;;;;;;;1.70;1.63;;;-5.20;99.90;;;;;;5107915;27;20443;-73
2022/12/15 08:08:31;;;;;;;1.03;0.97;;;-5.10;99.90;;;;;;5094471;28;20522;-73
2022/12/15 08:11:10;;;;;;;1.90;1.63;;;-5.10;99.90;;;;;;5104014;28;20426;-73
2022/12/15 08:13:38;;;;;;;1.45;1.38;;;-5.00;99.90;;;;;;5105228;28;21046;-74
2022/12/15 08:16:29;;;;;;;1.00;1.00;;;-4.90;99.90;;;;;;5104402;28;20904;-73
2022/12/15 08:19:04;;;;;;;2.17;0.90;;;-4.80;99.90;;;;;;5115093;27;20914;-73
2022/12/15 08:21:33;;;;;;;2.92;2.03;;;-4.80;99.90;;;;;;5100612;28;20513;-73
2022/12/15 08:24:00;;;;;;;1.95;1.42;;;-4.70;99.90;;;;;;5080410;28;20930;-72
2022/12/15 08:26:27;;;;;;;1.88;1.77;;;-4.60;99.90;;;;;;5106453;28;20424;-74
2022/12/15 08:28:59;;;;;;;3.35;1.67;;;-4.60;99.90;;;;;;5104916;28;20431;-74
2022/12/15 08:31:49;;;;;;;2.15;1.27;;;-4.50;99.90;;;;;;5108181;28;20419;-76
2022/12/15 08:34:16;;;;;;;2.38;1.75;;;-4.50;99.90;;;;;;5106638;28;20425;-74
2022/12/15 08:36:43;;;;;;;2.53;1.50;;;-4.50;99.90;;;;;;5105187;28;20532;-74
2022/12/15 08:39:09;;;;;;;2.03;1.53;;;-4.50;99.90;;;;;;5122921;28;20483;-74
2022/12/15 08:41:40;;;;;;;2.50;1.80;;;-4.50;99.90;;;;;;5093953;28;20440;-76
2022/12/15 08:44:06;;;;;;;2.38;1.65;;;-4.50;99.90;;;;;;5102336;28;20961;-75
2022/12/15 08:46:34;;;;;;;5.28;1.65;;;-4.40;99.90;;;;;;5092875;28;20421;-75
2022/12/15 08:49:02;;;;;;;1.80;1.65;;;-4.30;99.90;;;;;;5110362;28;20424;-75
2022/12/15 08:51:32;;;;;;;1.77;1.67;;;-4.20;99.90;;;;;;5098102;28;20895;-74
2022/12/15 08:53:59;;;;;;;3.05;1.73;;;-4.10;99.90;;;;;;5104131;28;20428;-75
2022/12/15 08:56:27;;;;;;;1.40;1.20;;;-4.00;99.90;;;;;;5097160;28;20423;-75
2022/12/15 08:58:57;;;;;;;2.88;1.98;;;-4.00;99.90;;;;;;5112455;28;20422;-75
2022/12/15 09:01:30;;;;;;;2.38;0.65;;;-3.90;99.90;;;;;;5097102;28;20428;-75
2022/12/15 09:03:57;;;;;;;2.30;1.17;;;-3.90;99.90;;;;;;5104616;27;20455;-75
2022/12/15 09:06:28;;;;;;;2.40;2.20;;;-3.80;99.90;;;;;;5105845;27;20430;-75
2022/12/15 09:09:01;;;;;;;5.28;1.65;;;-3.80;99.90;;;;;;5104380;27;20427;-75
2022/12/15 09:11:28;;;;;;;1.63;1.52;;;-3.70;99.90;;;;;;5110970;27;20422;-74
2022/12/15 09:13:58;;;;;;;2.53;1.45;;;-3.80;99.90;;;;;;5099828;27;20428;-75
2022/12/15 09:16:26;;;;;;;1.73;1.63;;;-3.70;99.90;;;;;;5088648;28;20425;-76
2022/12/15 09:18:56;;;;;;;2.55;1.55;;;-3.80;99.90;;;;;;5104630;27;20433;-74
2022/12/15 09:21:25;;;;;;;3.08;1.90;;;-3.70;99.90;;;;;;5110562;27;20633;-75
2022/12/15 09:23:56;;;;;;;3.25;1.58;;;-3.70;99.90;;;;;;5102588;27;20444;-74
2022/12/15 09:26:46;;;;;;;;;;;;;;;;;;;;;
2022/12/15 09:29:17;;;;;;;2.13;1.47;;;-3.60;99.90;;;;;;5097920;28;20434;-73
2022/12/15 09:31:45;;;;;;;1.70;1.60;;;-3.40;99.90;;;;;;5110245;27;20962;-74
2022/12/15 09:34:18;;;;;;;3.28;2.05;;;-3.30;99.90;;;;;;5100993;28;20428;-74
2022/12/15 09:36:44;;;;;;;1.67;1.58;;;-3.30;99.90;;;;;;5103704;27;20436;-74
2022/12/15 09:39:11;;;;;;;2.90;2.30;;;-3.40;99.90;;;;;;5113220;27;20424;-73
2022/12/15 09:41:55;;;;;;;5.10;1.38;;;-3.50;99.90;;;;;;5108146;27;20424;-76
2022/12/15 09:44:28;;;;;;;2.38;2.20;;;-3.70;99.90;;;;;;5110105;27;20522;-74
2022/12/15 09:47:19;;;;;;;3.15;2.95;;;-3.70;99.90;;;;;;5116842;27;20946;-74
2022/12/15 09:49:57;;;;;;;4.40;2.30;;;-3.60;99.90;;;;;;5101845;28;20455;-74
2022/12/15 09:52:30;;;;;;;2.55;1.95;;;-3.50;99.90;;;;;;5103354;27;20430;-73
2022/12/15 09:54:58;;;;;;;5.78;2.67;;;-3.50;99.90;;;;;;5113255;27;20869;-72
2022/12/15 09:57:48;;;;;;;5.50;3.33;;;-3.30;99.90;;;;;;5109275;27;20412;-72
2022/12/15 10:00:35;;;;;;;2.10;1.90;;;-3.20;99.90;;;;;;5087688;28;20447;-73
2022/12/15 10:03:43;;;;;;;4.55;2.13;;;-3.20;99.90;;;;;;5099428;27;20441;-73
2022/12/15 10:06:17;;;;;;;3.40;2.13;;;-3.30;99.90;;;;;;5108744;27;20515;-73
2022/12/15 10:08:48;;;;;;;4.82;2.00;;;-3.40;99.90;;;;;;5091568;27;20449;-74
2022/12/15 10:11:34;;;;;;;3.22;2.95;;;-3.40;99.90;;;;;;5111947;27;20877;-74
2022/12/15 10:14:31;;;;;;;6.68;3.10;;;-3.50;99.90;;;;;;5100297;27;20428;-74
2022/12/15 10:17:02;;;;;;;3.53;2.47;;;-3.50;99.90;;;;;;5115558;27;22987;-76
2022/12/15 10:19:52;;;;;;;1.93;1.43;;;-3.50;99.90;;;;;;5081723;28;21005;-73
2022/12/15 10:22:26;;;;;;;2.13;1.80;;;-3.40;99.90;;;;;;5100112;27;20430;-74
2022/12/15 10:24:53;;;;;;;1.70;1.60;;;-3.50;99.90;;;;;;5104983;27;20433;-73
2022/12/15 10:28:11;;;;;;;2.25;2.08;;;-3.40;99.90;;;;;;5097403;27;20487;-74
2022/12/15 10:30:57;;;;;;;2.40;2.20;;;-3.30;99.90;;;;;;5111960;27;20791;-75
2022/12/15 10:33:37;;;;;;;2.30;2.10;;;-3.40;99.90;;;;;;5104102;27;20474;-71
2022/12/15 10:36:10;;;;;;;4.20;2.22;;;-3.40;99.90;;;;;;5099767;27;20541;-72
2022/12/15 10:38:41;;;;;;;7.10;2.72;;;-3.40;99.90;;;;;;5096718;27;20434;-71
2022/12/15 10:41:11;;;;;;;3.10;2.17;;;-3.20;99.90;;;;;;5109938;27;20593;-71
2022/12/15 10:43:41;;;;;;;2.70;1.55;;;-3.00;99.90;;;;;;5104164;27;20788;-71
2022/12/15 10:46:18;;;;;;;3.88;2.22;;;-2.70;99.90;;;;;;5107853;27;21024;-71
2022/12/15 10:48:48;;;;;;;5.50;2.97;;;-2.60;99.90;;;;;;5087154;28;20468;-71
2022/12/15 10:51:20;;;;;;;3.00;2.08;;;-2.50;99.90;;;;;;5099521;27;20941;-71
2022/12/15 10:53:53;;;;;;;8.00;3.58;;;-2.50;99.90;;;;;;5096396;27;20421;-71
2022/12/15 10:56:25;;;;;;;5.90;2.92;;;-2.50;99.90;;;;;;5074396;28;20432;-71
2022/12/15 10:59:22;;;;;;;6.88;3.20;;;-2.40;99.90;;;;;;5107417;27;20448;-71
2022/12/15 11:01:50;;;;;;;10.02;3.90;;;-2.40;99.90;;;;;;5092254;27;20445;-71
2022/12/15 11:04:29;;;;;;;6.78;2.58;;;-2.30;99.90;;;;;;5095204;27;20917;-70
2022/12/15 11:06:59;;;;;;;3.92;1.85;;;-2.20;99.90;;;;;;5099043;27;20454;-70
2022/12/15 11:09:33;;;;;;;3.10;2.78;;;-2.10;99.90;;;;;;5094407;27;21174;-70
2022/12/15 11:14:50;;;;;;;2.38;2.13;;;-1.90;99.90;;;;;;5090522;27;20430;-70
2022/12/15 11:17:20;;;;;;;3.13;2.83;;;-1.90;99.90;;;;;;5094113;27;20426;-70
2022/12/15 11:20:03;;;;;;;3.70;2.40;;;-1.80;99.90;;;;;;5102305;27;20436;-71
2022/12/15 11:22:51;;;;;;;5.47;2.33;;;-1.80;99.90;;;;;;5106149;27;20428;-70
2022/12/15 11:25:28;;;;;;;5.95;2.58;;;-1.80;99.90;;;;;;5082047;28;20478;-71
2022/12/15 11:27:58;;;;;;;5.88;3.30;;;-1.90;99.90;;;;;;5100202;27;21106;-70
2022/12/15 11:30:52;;;;;;;7.85;2.58;;;-2.00;99.90;;;;;;5097951;27;20508;-70
2022/12/15 11:33:20;;;;;;;2.85;1.90;;;-2.00;99.90;;;;;;5090723;27;21091;-70
2022/12/15 11:36:37;;;;;;;2.25;2.00;;;-1.80;99.90;;;;;;5098418;27;20930;-72
2022/12/15 11:39:18;;;;;;;4.20;3.40;;;-1.60;99.90;;;;;;5036794;28;20807;-70
2022/12/15 11:42:06;;;;;;;5.17;3.03;;;-1.60;99.90;;;;;;5086928;28;20420;-70
2022/12/15 11:45:01;;;;;;;6.90;2.70;;;-1.40;99.90;;;;;;5106902;27;20445;-70
2022/12/15 11:47:43;;;;;;;5.47;2.33;;;-1.30;99.90;;;;;;5096073;28;20927;-70
2022/12/15 11:50:26;;;;;;;6.32;3.35;;;-1.20;99.90;;;;;;5094261;27;20428;-72
2022/12/15 11:53:16;;;;;;;6.32;2.97;;;-1.40;99.90;;;;;;5097033;27;20430;-70
2022/12/15 11:55:52;;;;;;;5.53;3.05;;;-1.40;99.90;;;;;;5105883;27;20422;-71
2022/12/15 11:58:57;;;;;;;2.53;2.17;;;-1.20;99.90;;;;;;5106104;27;20935;-70
2022/12/15 12:01:47;;;;;;;8.88;3.38;;;-1.10;99.90;;;;;;5100607;27;20896;-70
2022/12/15 12:05:04;;;;;;;5.93;2.92;;;-1.30;99.90;;;;;;5103729;27;20426;-70
2022/12/15 12:07:37;;;;;;;4.05;3.40;;;-1.10;99.90;;;;;;5083359;27;20431;-70
2022/12/15 12:10:14;;;;;;;4.60;3.17;;;-0.90;99.90;;;;;;5117715;27;20827;-70
2022/12/15 12:13:01;;;;;;;4.53;2.40;;;-0.60;99.90;;;;;;5085394;28;20446;-70
2022/12/15 12:16:08;;;;;;;6.88;3.80;;;-0.60;99.90;;;;;;5097341;27;20433;-70
2022/12/15 12:19:01;;;;;;;3.88;2.22;;;-0.50;99.90;;;;;;5096326;27;20435;-71
2022/12/15 12:21:45;;;;;;;6.07;3.35;;;-0.60;99.90;;;;;;5105423;27;20426;-69
2022/12/15 12:24:50;;;;;;;4.10;2.80;;;-0.60;99.90;;;;;;5108619;28;20447;-70
2022/12/15 12:27:48;;;;;;;3.77;3.13;;;-0.70;99.90;;;;;;5024290;28;20534;-72
2022/12/15 12:30:19;;;;;;;4.28;3.75;;;-1.00;99.90;;;;;;5036317;28;21098;-70
2022/12/15 12:33:12;;;;;;;6.30;4.37;;;-0.80;99.90;;;;;;5018100;28;20512;-70
2022/12/15 12:36:08;;;;;;;3.67;2.45;;;-0.70;99.90;;;;;;5031328;28;20438;-70
2022/12/15 12:38:45;;;;;;;9.10;4.38;;;-0.80;99.90;;;;;;5039180;28;20915;-70
2022/12/15 12:41:47;;;;;;;6.33;3.13;;;-0.80;99.90;;;;;;5033325;28;21039;-72
2022/12/15 12:44:22;;;;;;;4.35;2.50;;;-1.20;99.90;;;;;;5062159;28;20421;-70
2022/12/15 12:46:52;;;;;;;5.23;3.20;;;-1.40;99.90;;;;;;5060429;28;20428;-71
2022/12/15 12:49:34;;;;;;;3.92;2.70;;;-1.30;99.90;;;;;;5055783;28;20919;-70
2022/12/15 12:52:04;;;;;;;4.15;3.45;;;-1.20;99.90;;;;;;5044370;28;20435;-70
2022/12/15 12:54:36;;;;;;;9.02;3.60;;;-1.10;99.90;;;;;;5041142;28;20519;-71
2022/12/15 12:57:12;;;;;;;5.73;2.67;;;-1.20;99.90;;;;;;5024670;28;21147;-69
2022/12/15 13:00:07;;;;;;;3.22;2.88;;;-1.20;99.90;;;;;;5040151;28;20429;-70
2022/12/15 13:02:36;;;;;;;2.40;2.22;;;-1.30;99.90;;;;;;5042825;28;20431;-69
2022/12/15 13:05:32;;;;;;;3.57;2.60;;;-1.40;99.90;;;;;;5108071;27;20957;-70
2022/12/15 13:08:04;;;;;;;3.85;2.50;;;-1.50;99.90;;;;;;5112703;27;20418;-70
2022/12/15 13:10:32;;;;;;;3.47;3.13;;;-1.40;99.90;;;;;;5118434;27;20424;-70
2022/12/15 13:13:28;;;;;;;4.55;2.72;;;-1.40;99.90;;;;;;5112179;27;20491;-69
2022/12/15 13:16:19;;;;;;;9.95;4.20;;;-1.50;99.90;;;;;;5112930;27;20428;-69
2022/12/15 13:19:02;;;;;;;5.00;2.72;;;-1.40;99.90;;;;;;5110834;27;20488;-69
2022/12/15 13:21:41;;;;;;;5.50;2.90;;;-1.30;99.90;;;;;;5088201;28;20477;-69
2022/12/15 13:24:46;;;;;;;11.95;4.60;;;-1.40;99.90;;;;;;5115225;27;20938;-69
2022/12/15 13:27:16;;;;;;;3.10;2.85;;;-1.40;99.90;;;;;;5107637;27;20436;-70
2022/12/15 13:29:59;;;;;;;8.63;3.83;;;-1.50;99.90;;;;;;5107483;27;20421;-70
2022/12/15 13:32:35;;;;;;;3.67;2.13;;;-1.60;99.90;;;;;;5096593;27;20422;-70
2022/12/15 13:35:11;;;;;;;10.00;2.92;;;-1.80;99.90;;;;;;5122292;27;21154;-71
2022/12/15 13:38:08;;;;;;;4.60;3.47;;;-2.10;99.90;;;;;;5115864;27;20483;-70
2022/12/15 13:40:37;;;;;;;2.33;2.03;;;-2.30;99.90;;;;;;5050689;28;20439;-71
2022/12/15 13:43:26;;;;;;;2.55;1.95;;;-2.50;99.90;;;;;;5044240;28;21884;-70
2022/12/15 13:45:59;;;;;;;4.27;2.73;;;-2.70;99.90;;;;;;5039188;28;20954;-70
2022/12/15 13:48:50;;;;;;;3.90;3.43;;;-2.70;99.90;;;;;;5042839;28;20516;-70
2022/12/15 13:51:20;;;;;;;2.30;2.10;;;-2.70;99.90;;;;;;5044014;28;20433;-70
2022/12/15 13:54:10;;;;;;;4.32;2.72;;;-2.70;99.90;;;;;;5046530;28;20518;-70
2022/12/15 13:56:58;;;;;;;3.20;2.90;;;-2.70;99.90;;;;;;5052056;28;20439;-70
2022/12/15 13:59:45;;;;;;;4.70;2.53;;;-2.90;99.90;;;;;;5040091;28;20429;-70
2022/12/15 14:02:34;;;;;;;4.75;3.10;;;-3.00;99.90;;;;;;5049740;28;20548;-70
2022/12/15 14:05:13;;;;;;;3.58;2.92;;;-3.10;99.90;;;;;;5047933;28;20422;-70
2022/12/15 14:08:02;;;;;;;2.97;2.03;;;-3.10;99.90;;;;;;5046912;28;20426;-70
2022/12/15 14:10:32;;;;;;;2.70;1.70;;;-3.20;99.90;;;;;;5042667;28;20430;-70
2022/12/15 14:13:21;;;;;;;5.90;2.28;;;-3.30;99.90;;;;;;5032609;28;20919;-70
2022/12/15 14:15:55;;;;;;;3.70;2.63;;;-3.30;99.90;;;;;;5041975;28;20471;-72
2022/12/15 14:18:36;;;;;;;2.80;1.77;;;-3.40;99.90;;;;;;5080410;28;20428;-70
2022/12/15 14:21:20;;;;;;;8.38;2.03;;;-3.60;99.90;;;;;;5097303;28;21120;-70
2022/12/15 14:23:48;;;;;;;4.03;1.88;;;-3.70;99.90;;;;;;5101959;28;20431;-70
2022/12/15 14:26:35;;;;;;;2.60;2.10;;;-3.70;99.90;;;;;;5091014;28;20495;-71
2022/12/15 14:29:04;;;;;;;3.38;2.42;;;-3.70;99.90;;;;;;5102587;28;20452;-70
2022/12/15 14:31:31;;;;;;;7.40;2.78;;;-3.80;99.90;;;;;;5086704;28;20424;-73
2022/12/15 14:34:07;;;;;;;8.85;3.70;;;-3.80;99.90;;;;;;5101473;28;21068;-70
2022/12/15 14:36:35;;;;;;;8.27;2.97;;;-3.90;99.90;;;;;;5104158;28;20431;-70
2022/12/15 14:39:15;;;;;;;11.23;2.83;;;-4.00;99.90;;;;;;4969265;27;3962233;-70
2022/12/15 14:41:50;;;;;;;4.93;2.03;;;-4.00;99.90;;;;;;5109343;27;20430;-70
2022/12/15 14:44:19;;;;;;;2.80;1.92;;;-3.90;99.90;;;;;;5106222;27;20449;-70
2022/12/15 14:47:06;;;;;;;6.43;2.45;;;-4.00;99.90;;;;;;5110123;27;20804;-70
2022/12/15 14:49:44;;;;;;;2.08;1.75;;;-4.10;99.90;;;;;;5110291;27;20414;-70
2022/12/15 14:52:34;;;;;;;6.00;2.40;;;-4.10;99.90;;;;;;5105860;27;20431;-70
2022/12/15 14:55:23;;;;;;;3.03;2.00;;;-4.20;99.90;;;;;;5107830;27;20429;-70
2022/12/15 14:57:53;;;;;;;3.30;1.42;;;-4.30;99.90;;;;;;5105527;27;20424;-70
2022/12/15 15:00:26;;;;;;;2.90;1.57;;;-4.40;99.90;;;;;;5083507;27;20514;-70
2022/12/15 15:03:17;;;;;;;3.65;3.03;;;-4.40;99.90;;;;;;5116761;27;20440;-70
2022/12/15 15:05:55;;;;;;;11.75;4.50;;;-4.60;99.90;;;;;;5096521;27;20454;-70
2022/12/15 15:08:25;;;;;;;10.23;2.75;;;-4.60;99.90;;;;;;5116426;27;20430;-70
2022/12/15 15:11:02;;;;;;;20.08;4.80;;;-4.70;99.90;;;;;;5111205;27;20424;-70
2022/12/15 15:13:39;;;;;;;18.13;5.30;;;-4.70;99.90;;;;;;5104027;27;20426;-70
2022/12/15 15:16:13;;;;;;;2.60;1.48;;;-4.80;99.90;;;;;;5095816;27;20439;-70
2022/12/15 15:18:41;;;;;;;1.80;1.38;;;-4.90;99.90;;;;;;5100204;28;20823;-69
2022/12/15 15:21:16;;;;;;;5.03;1.55;;;-5.00;99.90;;;;;;5099222;27;20437;-69
2022/12/15 15:24:00;;;;;;;3.70;1.80;;;-5.20;99.90;;;;;;5115889;27;20466;-71
2022/12/15 15:26:27;;;;;;;3.15;1.85;;;-5.30;99.90;;;;;;5111707;27;20428;-70
2022/12/15 15:29:00;;;;;;;6.75;2.00;;;-5.40;99.90;;;;;;5106063;27;20418;-70
2022/12/15 15:31:36;;;;;;;3.75;1.48;;;-5.40;99.90;;;;;;5105021;27;20785;-69
2022/12/15 15:34:07;;;;;;;4.78;2.30;;;-5.50;99.90;;;;;;5113169;27;20474;-69
2022/12/15 15:36:38;;;;;;;1.57;1.57;;;-5.50;1.00;;;;;;5102016;27;20429;-69
2022/12/15 15:39:15;;;;;;;5.87;1.97;;;-5.60;85.80;;;;;;5109224;27;20912;-69
2022/12/15 15:41:41;;;;;;;1.52;1.42;;;-5.70;99.90;;;;;;5102582;27;20434;-69
2022/12/15 15:44:13;;;;;;;2.03;1.83;;;-5.70;99.90;;;;;;5096602;27;20437;-68
2022/12/15 15:46:51;;;;;;;5.57;2.38;;;-5.90;99.90;;;;;;5099290;27;20768;-71
2022/12/15 15:49:20;;;;;;;1.20;1.20;;;-6.00;99.90;;;;;;5085970;28;20424;-69
2022/12/15 15:51:47;;;;;;;5.38;2.15;;;-6.00;1.00;;;;;;5108916;27;20432;-69